sensor_id;sensor_type;location;lat;lon;timestamp;P1;durP1;ratioP1;P2;durP2;ratioP2
32826;SDS011;51059;42.058;27.986;2022-12-10T00:01:39;39.33;;;16.20;;
32826;SDS011;51059;42.058;27.986;2022-12-10T00:04:06;44.50;;;16.43;;
32826;SDS011;51059;42.058;27.986;2022-12-10T00:06:33;31.10;;;15.57;;
32826;SDS011;51059;42.058;27.986;2022-12-10T00:09:00;35.97;;;16.37;;
32826;SDS011;51059;42.058;27.986;2022-12-10T00:11:26;29.73;;;15.50;;
32826;SDS011;51059;42.058;27.986;2022-12-10T00:13:52;38.63;;;16.20;;
32826;SDS011;51059;42.058;27.986;2022-12-10T00:16:19;36.00;;;16.23;;
32826;SDS011;51059;42.058;27.986;2022-12-10T00:18:46;36.43;;;15.60;;
32826;SDS011;51059;42.058;27.986;2022-12-10T00:21:14;32.63;;;15.30;;
32826;SDS011;51059;42.058;27.986;2022-12-10T00:23:42;30.33;;;14.40;;
32826;SDS011;51059;42.058;27.986;2022-12-10T00:26:09;38.07;;;15.10;;
32826;SDS011;51059;42.058;27.986;2022-12-10T00:28:37;32.10;;;15.50;;
32826;SDS011;51059;42.058;27.986;2022-12-10T00:31:04;36.03;;;15.10;;
32826;SDS011;51059;42.058;27.986;2022-12-10T00:33:30;31.67;;;15.23;;
32826;SDS011;51059;42.058;27.986;2022-12-10T00:35:56;32.40;;;15.10;;
32826;SDS011;51059;42.058;27.986;2022-12-10T00:38:26;32.70;;;15.50;;
32826;SDS011;51059;42.058;27.986;2022-12-10T00:40:51;32.30;;;14.97;;
32826;SDS011;51059;42.058;27.986;2022-12-10T00:43:17;47.93;;;15.70;;
32826;SDS011;51059;42.058;27.986;2022-12-10T00:45:42;46.07;;;15.97;;
32826;SDS011;51059;42.058;27.986;2022-12-10T00:48:08;35.23;;;15.27;;
32826;SDS011;51059;42.058;27.986;2022-12-10T00:50:33;29.93;;;15.17;;
32826;SDS011;51059;42.058;27.986;2022-12-10T00:52:59;43.43;;;16.03;;
32826;SDS011;51059;42.058;27.986;2022-12-10T00:55:24;34.57;;;14.63;;
32826;SDS011;51059;42.058;27.986;2022-12-10T00:57:50;32.93;;;14.87;;
32826;SDS011;51059;42.058;27.986;2022-12-10T01:00:16;39.17;;;16.17;;
32826;SDS011;51059;42.058;27.986;2022-12-10T01:02:41;37.20;;;15.43;;
32826;SDS011;51059;42.058;27.986;2022-12-10T01:05:07;32.23;;;15.30;;
32826;SDS011;51059;42.058;27.986;2022-12-10T01:07:33;33.43;;;15.33;;
32826;SDS011;51059;42.058;27.986;2022-12-10T01:09:58;31.57;;;15.10;;
32826;SDS011;51059;42.058;27.986;2022-12-10T01:12:24;41.67;;;14.67;;
32826;SDS011;51059;42.058;27.986;2022-12-10T01:14:49;37.30;;;15.97;;
32826;SDS011;51059;42.058;27.986;2022-12-10T01:17:15;35.80;;;15.20;;
32826;SDS011;51059;42.058;27.986;2022-12-10T01:19:41;33.63;;;14.83;;
32826;SDS011;51059;42.058;27.986;2022-12-10T01:22:06;28.43;;;14.93;;
32826;SDS011;51059;42.058;27.986;2022-12-10T01:24:32;31.27;;;14.43;;
32826;SDS011;51059;42.058;27.986;2022-12-10T01:26:57;35.50;;;15.43;;
32826;SDS011;51059;42.058;27.986;2022-12-10T01:29:23;36.00;;;15.23;;
32826;SDS011;51059;42.058;27.986;2022-12-10T01:31:52;39.43;;;14.53;;
32826;SDS011;51059;42.058;27.986;2022-12-10T01:34:19;36.10;;;16.07;;
32826;SDS011;51059;42.058;27.986;2022-12-10T01:36:47;37.87;;;15.07;;
32826;SDS011;51059;42.058;27.986;2022-12-10T01:39:15;34.17;;;15.40;;
32826;SDS011;51059;42.058;27.986;2022-12-10T01:41:46;31.07;;;14.60;;
32826;SDS011;51059;42.058;27.986;2022-12-10T01:46:42;35.37;;;15.20;;
32826;SDS011;51059;42.058;27.986;2022-12-10T01:49:16;39.87;;;15.13;;
32826;SDS011;51059;42.058;27.986;2022-12-10T01:51:45;30.77;;;14.90;;
32826;SDS011;51059;42.058;27.986;2022-12-10T01:54:13;30.43;;;15.77;;
32826;SDS011;51059;42.058;27.986;2022-12-10T01:56:47;36.70;;;14.70;;
32826;SDS011;51059;42.058;27.986;2022-12-10T01:59:16;31.47;;;16.10;;
32826;SDS011;51059;42.058;27.986;2022-12-10T02:10:28;30.10;;;15.07;;
32826;SDS011;51059;42.058;27.986;2022-12-10T02:13:01;32.03;;;16.27;;
32826;SDS011;51059;42.058;27.986;2022-12-10T02:15:33;37.53;;;15.17;;
32826;SDS011;51059;42.058;27.986;2022-12-10T02:18:03;34.53;;;15.60;;
32826;SDS011;51059;42.058;27.986;2022-12-10T02:30:57;34.80;;;16.30;;
32826;SDS011;51059;42.058;27.986;2022-12-10T02:33:24;38.53;;;17.13;;
32826;SDS011;51059;42.058;27.986;2022-12-10T02:35:51;40.23;;;17.13;;
32826;SDS011;51059;42.058;27.986;2022-12-10T02:38:19;33.60;;;16.13;;
32826;SDS011;51059;42.058;27.986;2022-12-10T02:40:58;41.70;;;16.57;;
32826;SDS011;51059;42.058;27.986;2022-12-10T02:43:26;37.07;;;17.00;;
32826;SDS011;51059;42.058;27.986;2022-12-10T02:45:53;33.50;;;16.83;;
32826;SDS011;51059;42.058;27.986;2022-12-10T02:48:20;35.10;;;16.40;;
32826;SDS011;51059;42.058;27.986;2022-12-10T02:50:46;30.83;;;16.20;;
32826;SDS011;51059;42.058;27.986;2022-12-10T02:53:11;35.90;;;16.73;;
32826;SDS011;51059;42.058;27.986;2022-12-10T02:55:41;37.80;;;16.70;;
32826;SDS011;51059;42.058;27.986;2022-12-10T02:58:35;32.40;;;15.50;;
32826;SDS011;51059;42.058;27.986;2022-12-10T03:01:21;31.93;;;15.80;;
32826;SDS011;51059;42.058;27.986;2022-12-10T03:04:05;32.03;;;16.47;;
32826;SDS011;51059;42.058;27.986;2022-12-10T03:06:38;36.87;;;15.97;;
32826;SDS011;51059;42.058;27.986;2022-12-10T03:09:08;34.03;;;16.20;;
32826;SDS011;51059;42.058;27.986;2022-12-10T03:11:46;33.07;;;15.63;;
32826;SDS011;51059;42.058;27.986;2022-12-10T03:14:19;31.53;;;16.57;;
32826;SDS011;51059;42.058;27.986;2022-12-10T03:16:49;31.33;;;15.30;;
32826;SDS011;51059;42.058;27.986;2022-12-10T03:19:19;34.73;;;16.70;;
32826;SDS011;51059;42.058;27.986;2022-12-10T03:21:49;35.47;;;16.60;;
32826;SDS011;51059;42.058;27.986;2022-12-10T03:24:16;34.60;;;16.87;;
32826;SDS011;51059;42.058;27.986;2022-12-10T03:26:42;36.80;;;15.70;;
32826;SDS011;51059;42.058;27.986;2022-12-10T03:29:10;31.17;;;15.33;;
32826;SDS011;51059;42.058;27.986;2022-12-10T03:31:40;30.37;;;15.63;;
32826;SDS011;51059;42.058;27.986;2022-12-10T03:34:06;32.33;;;15.90;;
32826;SDS011;51059;42.058;27.986;2022-12-10T03:36:32;34.73;;;15.27;;
32826;SDS011;51059;42.058;27.986;2022-12-10T03:38:58;34.27;;;15.10;;
32826;SDS011;51059;42.058;27.986;2022-12-10T03:41:24;31.53;;;15.57;;
32826;SDS011;51059;42.058;27.986;2022-12-10T03:43:53;33.60;;;15.53;;
32826;SDS011;51059;42.058;27.986;2022-12-10T03:46:23;39.70;;;16.20;;
32826;SDS011;51059;42.058;27.986;2022-12-10T03:48:51;35.40;;;15.27;;
32826;SDS011;51059;42.058;27.986;2022-12-10T03:51:17;40.50;;;15.17;;
32826;SDS011;51059;42.058;27.986;2022-12-10T03:53:42;26.63;;;14.87;;
32826;SDS011;51059;42.058;27.986;2022-12-10T03:56:08;28.80;;;15.83;;
32826;SDS011;51059;42.058;27.986;2022-12-10T03:58:34;32.63;;;15.07;;
32826;SDS011;51059;42.058;27.986;2022-12-10T04:00:59;39.97;;;15.07;;
32826;SDS011;51059;42.058;27.986;2022-12-10T04:03:25;32.37;;;14.83;;
32826;SDS011;51059;42.058;27.986;2022-12-10T04:05:51;28.30;;;14.67;;
32826;SDS011;51059;42.058;27.986;2022-12-10T04:08:16;36.57;;;15.87;;
32826;SDS011;51059;42.058;27.986;2022-12-10T04:10:42;47.03;;;16.50;;
32826;SDS011;51059;42.058;27.986;2022-12-10T04:13:07;39.03;;;15.93;;
32826;SDS011;51059;42.058;27.986;2022-12-10T04:15:52;28.43;;;16.00;;
32826;SDS011;51059;42.058;27.986;2022-12-10T04:18:36;36.83;;;17.00;;
32826;SDS011;51059;42.058;27.986;2022-12-10T04:21:02;43.63;;;16.70;;
32826;SDS011;51059;42.058;27.986;2022-12-10T04:23:45;33.67;;;16.70;;
32826;SDS011;51059;42.058;27.986;2022-12-10T04:26:30;34.77;;;17.07;;
32826;SDS011;51059;42.058;27.986;2022-12-10T04:29:15;35.97;;;16.53;;
32826;SDS011;51059;42.058;27.986;2022-12-10T04:31:41;34.03;;;16.20;;
32826;SDS011;51059;42.058;27.986;2022-12-10T04:34:06;34.97;;;16.37;;
32826;SDS011;51059;42.058;27.986;2022-12-10T04:36:32;31.13;;;16.30;;
32826;SDS011;51059;42.058;27.986;2022-12-10T04:38:58;27.83;;;16.63;;
32826;SDS011;51059;42.058;27.986;2022-12-10T04:41:23;33.87;;;16.40;;
32826;SDS011;51059;42.058;27.986;2022-12-10T04:43:49;34.13;;;15.90;;
32826;SDS011;51059;42.058;27.986;2022-12-10T04:46:14;33.33;;;16.17;;
32826;SDS011;51059;42.058;27.986;2022-12-10T04:48:40;28.63;;;15.87;;
32826;SDS011;51059;42.058;27.986;2022-12-10T04:51:06;30.90;;;15.67;;
32826;SDS011;51059;42.058;27.986;2022-12-10T04:53:31;26.43;;;15.17;;
32826;SDS011;51059;42.058;27.986;2022-12-10T04:55:57;27.17;;;15.43;;
32826;SDS011;51059;42.058;27.986;2022-12-10T04:58:22;29.20;;;14.77;;
32826;SDS011;51059;42.058;27.986;2022-12-10T05:00:48;36.77;;;15.63;;
32826;SDS011;51059;42.058;27.986;2022-12-10T05:03:13;29.43;;;14.83;;
32826;SDS011;51059;42.058;27.986;2022-12-10T05:05:39;28.70;;;15.07;;
32826;SDS011;51059;42.058;27.986;2022-12-10T05:08:05;26.50;;;14.40;;
32826;SDS011;51059;42.058;27.986;2022-12-10T05:10:30;22.27;;;13.50;;
32826;SDS011;51059;42.058;27.986;2022-12-10T05:12:56;22.53;;;14.53;;
32826;SDS011;51059;42.058;27.986;2022-12-10T05:15:21;22.00;;;13.97;;
32826;SDS011;51059;42.058;27.986;2022-12-10T05:17:47;24.50;;;13.37;;
32826;SDS011;51059;42.058;27.986;2022-12-10T05:20:13;31.70;;;13.70;;
32826;SDS011;51059;42.058;27.986;2022-12-10T05:22:38;23.97;;;13.10;;
32826;SDS011;51059;42.058;27.986;2022-12-10T05:25:22;33.10;;;13.33;;
32826;SDS011;51059;42.058;27.986;2022-12-10T05:27:48;29.00;;;12.53;;
32826;SDS011;51059;42.058;27.986;2022-12-10T05:30:13;25.37;;;11.67;;
32826;SDS011;51059;42.058;27.986;2022-12-10T05:32:39;27.90;;;12.27;;
32826;SDS011;51059;42.058;27.986;2022-12-10T05:35:05;26.67;;;11.50;;
32826;SDS011;51059;42.058;27.986;2022-12-10T05:37:30;21.43;;;12.07;;
32826;SDS011;51059;42.058;27.986;2022-12-10T05:39:56;28.17;;;12.27;;
32826;SDS011;51059;42.058;27.986;2022-12-10T05:42:22;25.93;;;12.00;;
32826;SDS011;51059;42.058;27.986;2022-12-10T05:44:48;23.30;;;11.47;;
32826;SDS011;51059;42.058;27.986;2022-12-10T05:47:14;24.30;;;11.67;;
32826;SDS011;51059;42.058;27.986;2022-12-10T05:49:39;23.80;;;10.70;;
32826;SDS011;51059;42.058;27.986;2022-12-10T05:52:05;26.27;;;11.87;;
32826;SDS011;51059;42.058;27.986;2022-12-10T05:54:30;18.07;;;11.30;;
32826;SDS011;51059;42.058;27.986;2022-12-10T05:56:56;26.50;;;11.93;;
32826;SDS011;51059;42.058;27.986;2022-12-10T05:59:22;22.73;;;11.47;;
32826;SDS011;51059;42.058;27.986;2022-12-10T06:01:47;21.10;;;11.17;;
32826;SDS011;51059;42.058;27.986;2022-12-10T06:04:13;27.13;;;12.10;;
32826;SDS011;51059;42.058;27.986;2022-12-10T06:06:38;20.40;;;11.10;;
32826;SDS011;51059;42.058;27.986;2022-12-10T06:09:05;23.73;;;11.77;;
32826;SDS011;51059;42.058;27.986;2022-12-10T06:11:32;24.60;;;12.67;;
32826;SDS011;51059;42.058;27.986;2022-12-10T06:13:58;23.27;;;12.00;;
32826;SDS011;51059;42.058;27.986;2022-12-10T06:16:25;21.27;;;12.40;;
32826;SDS011;51059;42.058;27.986;2022-12-10T06:18:51;22.17;;;12.10;;
32826;SDS011;51059;42.058;27.986;2022-12-10T06:21:17;27.10;;;12.17;;
32826;SDS011;51059;42.058;27.986;2022-12-10T06:23:43;20.40;;;11.87;;
32826;SDS011;51059;42.058;27.986;2022-12-10T06:26:10;26.43;;;11.77;;
32826;SDS011;51059;42.058;27.986;2022-12-10T06:28:38;24.57;;;12.30;;
32826;SDS011;51059;42.058;27.986;2022-12-10T06:31:04;20.87;;;11.47;;
32826;SDS011;51059;42.058;27.986;2022-12-10T06:33:30;23.63;;;12.50;;
32826;SDS011;51059;42.058;27.986;2022-12-10T06:35:56;25.13;;;12.57;;
32826;SDS011;51059;42.058;27.986;2022-12-10T06:38:22;24.47;;;11.43;;
32826;SDS011;51059;42.058;27.986;2022-12-10T06:40:48;22.73;;;12.03;;
32826;SDS011;51059;42.058;27.986;2022-12-10T06:43:13;23.03;;;11.67;;
32826;SDS011;51059;42.058;27.986;2022-12-10T06:45:40;21.03;;;11.83;;
32826;SDS011;51059;42.058;27.986;2022-12-10T06:48:06;22.37;;;11.73;;
32826;SDS011;51059;42.058;27.986;2022-12-10T06:50:32;25.13;;;11.53;;
32826;SDS011;51059;42.058;27.986;2022-12-10T06:52:58;26.23;;;11.77;;
32826;SDS011;51059;42.058;27.986;2022-12-10T06:55:23;28.47;;;11.70;;
32826;SDS011;51059;42.058;27.986;2022-12-10T06:57:52;25.87;;;12.00;;
32826;SDS011;51059;42.058;27.986;2022-12-10T07:00:19;26.60;;;11.17;;
32826;SDS011;51059;42.058;27.986;2022-12-10T07:02:45;29.43;;;11.57;;
32826;SDS011;51059;42.058;27.986;2022-12-10T07:05:10;21.50;;;11.47;;
32826;SDS011;51059;42.058;27.986;2022-12-10T07:07:36;26.60;;;11.43;;
32826;SDS011;51059;42.058;27.986;2022-12-10T07:10:02;24.47;;;11.17;;
32826;SDS011;51059;42.058;27.986;2022-12-10T07:12:28;21.73;;;11.43;;
32826;SDS011;51059;42.058;27.986;2022-12-10T07:14:54;27.43;;;11.63;;
32826;SDS011;51059;42.058;27.986;2022-12-10T07:17:20;21.57;;;11.37;;
32826;SDS011;51059;42.058;27.986;2022-12-10T07:19:45;31.97;;;12.73;;
32826;SDS011;51059;42.058;27.986;2022-12-10T07:22:11;25.23;;;12.27;;
32826;SDS011;51059;42.058;27.986;2022-12-10T07:24:36;36.13;;;12.37;;
32826;SDS011;51059;42.058;27.986;2022-12-10T07:27:04;32.33;;;13.13;;
32826;SDS011;51059;42.058;27.986;2022-12-10T07:29:30;26.67;;;11.97;;
32826;SDS011;51059;42.058;27.986;2022-12-10T07:31:56;26.73;;;11.97;;
32826;SDS011;51059;42.058;27.986;2022-12-10T07:34:22;24.77;;;11.57;;
32826;SDS011;51059;42.058;27.986;2022-12-10T07:36:47;24.37;;;11.47;;
32826;SDS011;51059;42.058;27.986;2022-12-10T07:39:13;28.97;;;11.23;;
32826;SDS011;51059;42.058;27.986;2022-12-10T07:41:51;24.90;;;11.43;;
32826;SDS011;51059;42.058;27.986;2022-12-10T07:44:21;23.90;;;11.43;;
32826;SDS011;51059;42.058;27.986;2022-12-10T07:46:48;19.53;;;10.57;;
32826;SDS011;51059;42.058;27.986;2022-12-10T07:49:14;21.73;;;10.07;;
32826;SDS011;51059;42.058;27.986;2022-12-10T07:51:43;23.57;;;9.83;;
32826;SDS011;51059;42.058;27.986;2022-12-10T07:54:13;17.00;;;9.87;;
32826;SDS011;51059;42.058;27.986;2022-12-10T07:56:39;14.37;;;9.10;;
32826;SDS011;51059;42.058;27.986;2022-12-10T07:59:05;16.90;;;8.60;;
32826;SDS011;51059;42.058;27.986;2022-12-10T08:01:30;13.67;;;8.03;;
32826;SDS011;51059;42.058;27.986;2022-12-10T08:03:56;11.50;;;7.80;;
32826;SDS011;51059;42.058;27.986;2022-12-10T08:06:22;16.07;;;7.90;;
32826;SDS011;51059;42.058;27.986;2022-12-10T08:08:49;16.93;;;8.40;;
32826;SDS011;51059;42.058;27.986;2022-12-10T08:11:15;13.70;;;8.50;;
32826;SDS011;51059;42.058;27.986;2022-12-10T08:13:42;15.67;;;8.60;;
32826;SDS011;51059;42.058;27.986;2022-12-10T08:16:20;17.50;;;8.93;;
32826;SDS011;51059;42.058;27.986;2022-12-10T08:18:50;14.73;;;8.50;;
32826;SDS011;51059;42.058;27.986;2022-12-10T08:21:17;15.77;;;9.63;;
32826;SDS011;51059;42.058;27.986;2022-12-10T08:23:44;14.80;;;10.20;;
32826;SDS011;51059;42.058;27.986;2022-12-10T08:26:15;24.47;;;10.43;;
32826;SDS011;51059;42.058;27.986;2022-12-10T08:28:41;17.97;;;10.23;;
32826;SDS011;51059;42.058;27.986;2022-12-10T08:31:08;22.73;;;12.10;;
32826;SDS011;51059;42.058;27.986;2022-12-10T08:33:36;18.37;;;11.83;;
32826;SDS011;51059;42.058;27.986;2022-12-10T08:36:02;19.47;;;11.37;;
32826;SDS011;51059;42.058;27.986;2022-12-10T08:38:29;21.27;;;11.50;;
32826;SDS011;51059;42.058;27.986;2022-12-10T08:40:55;21.30;;;11.23;;
32826;SDS011;51059;42.058;27.986;2022-12-10T08:43:20;20.87;;;11.43;;
32826;SDS011;51059;42.058;27.986;2022-12-10T08:45:46;20.97;;;10.93;;
32826;SDS011;51059;42.058;27.986;2022-12-10T08:48:12;20.50;;;11.17;;
32826;SDS011;51059;42.058;27.986;2022-12-10T08:50:38;20.17;;;10.30;;
32826;SDS011;51059;42.058;27.986;2022-12-10T08:53:03;19.70;;;11.27;;
32826;SDS011;51059;42.058;27.986;2022-12-10T08:55:29;21.47;;;10.90;;
32826;SDS011;51059;42.058;27.986;2022-12-10T08:57:58;19.13;;;11.13;;
32826;SDS011;51059;42.058;27.986;2022-12-10T09:00:24;16.30;;;10.43;;
32826;SDS011;51059;42.058;27.986;2022-12-10T09:02:50;21.53;;;10.70;;
32826;SDS011;51059;42.058;27.986;2022-12-10T09:05:16;17.90;;;9.67;;
32826;SDS011;51059;42.058;27.986;2022-12-10T09:07:42;19.53;;;10.57;;
32826;SDS011;51059;42.058;27.986;2022-12-10T09:10:09;20.77;;;10.13;;
32826;SDS011;51059;42.058;27.986;2022-12-10T09:12:36;13.47;;;9.63;;
32826;SDS011;51059;42.058;27.986;2022-12-10T09:15:02;16.37;;;10.20;;
32826;SDS011;51059;42.058;27.986;2022-12-10T09:17:28;21.27;;;10.57;;
32826;SDS011;51059;42.058;27.986;2022-12-10T09:19:53;17.17;;;9.43;;
32826;SDS011;51059;42.058;27.986;2022-12-10T09:22:19;16.57;;;9.60;;
32826;SDS011;51059;42.058;27.986;2022-12-10T09:24:45;13.77;;;10.07;;
32826;SDS011;51059;42.058;27.986;2022-12-10T09:27:10;16.07;;;9.57;;
32826;SDS011;51059;42.058;27.986;2022-12-10T09:29:36;15.90;;;10.00;;
32826;SDS011;51059;42.058;27.986;2022-12-10T09:32:01;18.93;;;10.37;;
32826;SDS011;51059;42.058;27.986;2022-12-10T09:34:27;21.77;;;10.60;;
32826;SDS011;51059;42.058;27.986;2022-12-10T09:36:53;18.00;;;9.30;;
32826;SDS011;51059;42.058;27.986;2022-12-10T09:39:18;20.03;;;10.30;;
32826;SDS011;51059;42.058;27.986;2022-12-10T09:45:18;16.27;;;10.03;;
32826;SDS011;51059;42.058;27.986;2022-12-10T09:47:30;18.43;;;9.53;;
32826;SDS011;51059;42.058;27.986;2022-12-10T09:50:28;20.43;;;10.27;;
32826;SDS011;51059;42.058;27.986;2022-12-10T09:52:58;24.07;;;11.40;;
32826;SDS011;51059;42.058;27.986;2022-12-10T09:55:31;21.73;;;12.07;;
32826;SDS011;51059;42.058;27.986;2022-12-10T09:58:00;19.63;;;11.43;;
32826;SDS011;51059;42.058;27.986;2022-12-10T10:03:03;25.60;;;13.17;;
32826;SDS011;51059;42.058;27.986;2022-12-10T10:05:30;25.33;;;13.47;;
32826;SDS011;51059;42.058;27.986;2022-12-10T10:07:57;21.73;;;11.40;;
32826;SDS011;51059;42.058;27.986;2022-12-10T10:10:27;15.80;;;7.70;;
32826;SDS011;51059;42.058;27.986;2022-12-10T10:13:30;7.67;;;4.70;;
32826;SDS011;51059;42.058;27.986;2022-12-10T10:15:57;10.90;;;4.83;;
32826;SDS011;51059;42.058;27.986;2022-12-10T10:18:43;16.33;;;5.90;;
32826;SDS011;51059;42.058;27.986;2022-12-10T10:21:20;12.03;;;5.17;;
32826;SDS011;51059;42.058;27.986;2022-12-10T10:23:50;11.60;;;5.10;;
32826;SDS011;51059;42.058;27.986;2022-12-10T10:26:16;10.97;;;5.03;;
32826;SDS011;51059;42.058;27.986;2022-12-10T10:28:42;10.87;;;5.00;;
32826;SDS011;51059;42.058;27.986;2022-12-10T10:31:19;11.07;;;4.83;;
32826;SDS011;51059;42.058;27.986;2022-12-10T10:33:55;10.63;;;5.07;;
32826;SDS011;51059;42.058;27.986;2022-12-10T10:36:23;13.50;;;5.70;;
32826;SDS011;51059;42.058;27.986;2022-12-10T10:38:54;12.80;;;5.70;;
32826;SDS011;51059;42.058;27.986;2022-12-10T10:41:20;14.13;;;5.23;;
32826;SDS011;51059;42.058;27.986;2022-12-10T10:43:46;15.60;;;6.73;;
32826;SDS011;51059;42.058;27.986;2022-12-10T10:48:42;15.60;;;5.87;;
32826;SDS011;51059;42.058;27.986;2022-12-10T10:51:13;16.63;;;6.10;;
32826;SDS011;51059;42.058;27.986;2022-12-10T10:53:46;16.10;;;6.17;;
32826;SDS011;51059;42.058;27.986;2022-12-10T10:58:47;12.83;;;6.07;;
32826;SDS011;51059;42.058;27.986;2022-12-10T11:01:20;16.63;;;6.53;;
32826;SDS011;51059;42.058;27.986;2022-12-10T11:03:47;12.87;;;6.00;;
32826;SDS011;51059;42.058;27.986;2022-12-10T11:06:14;12.00;;;6.60;;
32826;SDS011;51059;42.058;27.986;2022-12-10T11:08:39;12.67;;;6.03;;
32826;SDS011;51059;42.058;27.986;2022-12-10T11:11:11;14.00;;;5.90;;
32826;SDS011;51059;42.058;27.986;2022-12-10T11:13:42;18.80;;;6.60;;
32826;SDS011;51059;42.058;27.986;2022-12-10T11:16:12;15.83;;;6.70;;
32826;SDS011;51059;42.058;27.986;2022-12-10T11:19:04;13.17;;;6.67;;
32826;SDS011;51059;42.058;27.986;2022-12-10T11:21:31;18.60;;;7.07;;
32826;SDS011;51059;42.058;27.986;2022-12-10T11:23:58;18.73;;;7.00;;
32826;SDS011;51059;42.058;27.986;2022-12-10T11:26:28;13.57;;;7.77;;
32826;SDS011;51059;42.058;27.986;2022-12-10T11:29:05;14.50;;;7.40;;
32826;SDS011;51059;42.058;27.986;2022-12-10T11:45:43;19.33;;;8.40;;
32826;SDS011;51059;42.058;27.986;2022-12-10T11:51:00;26.23;;;9.43;;
32826;SDS011;51059;42.058;27.986;2022-12-10T11:56:40;21.30;;;9.27;;
32826;SDS011;51059;42.058;27.986;2022-12-10T11:59:50;19.80;;;9.50;;
32826;SDS011;51059;42.058;27.986;2022-12-10T12:10:53;24.10;;;10.80;;
32826;SDS011;51059;42.058;27.986;2022-12-10T12:13:45;25.60;;;10.17;;
32826;SDS011;51059;42.058;27.986;2022-12-10T12:16:14;18.60;;;9.07;;
32826;SDS011;51059;42.058;27.986;2022-12-10T12:18:45;23.50;;;10.50;;
32826;SDS011;51059;42.058;27.986;2022-12-10T12:21:15;27.00;;;10.40;;
32826;SDS011;51059;42.058;27.986;2022-12-10T12:26:37;22.50;;;9.97;;
32826;SDS011;51059;42.058;27.986;2022-12-10T12:31:39;23.73;;;10.57;;
32826;SDS011;51059;42.058;27.986;2022-12-10T12:34:15;25.70;;;10.87;;
32826;SDS011;51059;42.058;27.986;2022-12-10T12:36:44;32.03;;;11.13;;
32826;SDS011;51059;42.058;27.986;2022-12-10T12:39:13;30.00;;;12.40;;
32826;SDS011;51059;42.058;27.986;2022-12-10T12:46:58;23.03;;;11.70;;
32826;SDS011;51059;42.058;27.986;2022-12-10T12:49:34;23.20;;;12.40;;
32826;SDS011;51059;42.058;27.986;2022-12-10T12:52:03;28.97;;;12.70;;
32826;SDS011;51059;42.058;27.986;2022-12-10T12:54:35;29.27;;;12.97;;
32826;SDS011;51059;42.058;27.986;2022-12-10T12:59:48;31.03;;;12.83;;
32826;SDS011;51059;42.058;27.986;2022-12-10T13:05:24;28.13;;;12.67;;
32826;SDS011;51059;42.058;27.986;2022-12-10T13:15:54;26.23;;;12.67;;
32826;SDS011;51059;42.058;27.986;2022-12-10T13:18:38;25.97;;;12.77;;
32826;SDS011;51059;42.058;27.986;2022-12-10T13:23:54;34.57;;;13.27;;
32826;SDS011;51059;42.058;27.986;2022-12-10T13:26:31;22.80;;;12.60;;
32826;SDS011;51059;42.058;27.986;2022-12-10T13:31:57;27.77;;;16.47;;
32826;SDS011;51059;42.058;27.986;2022-12-10T13:34:34;38.13;;;17.77;;
32826;SDS011;51059;42.058;27.986;2022-12-10T13:37:03;39.50;;;17.80;;
32826;SDS011;51059;42.058;27.986;2022-12-10T13:42:35;40.00;;;17.30;;
32826;SDS011;51059;42.058;27.986;2022-12-10T13:45:28;43.37;;;18.20;;
32826;SDS011;51059;42.058;27.986;2022-12-10T13:48:15;40.67;;;17.93;;
32826;SDS011;51059;42.058;27.986;2022-12-10T13:50:49;36.33;;;18.10;;
32826;SDS011;51059;42.058;27.986;2022-12-10T13:53:39;35.67;;;17.53;;
32826;SDS011;51059;42.058;27.986;2022-12-10T13:56:11;37.37;;;17.93;;
32826;SDS011;51059;42.058;27.986;2022-12-10T13:58:46;34.73;;;17.97;;
32826;SDS011;51059;42.058;27.986;2022-12-10T14:01:37;30.40;;;15.90;;
32826;SDS011;51059;42.058;27.986;2022-12-10T14:07:07;28.17;;;10.27;;
32826;SDS011;51059;42.058;27.986;2022-12-10T14:09:38;34.40;;;9.57;;
32826;SDS011;51059;42.058;27.986;2022-12-10T14:12:14;26.17;;;9.17;;
32826;SDS011;51059;42.058;27.986;2022-12-10T14:15:03;27.70;;;9.60;;
32826;SDS011;51059;42.058;27.986;2022-12-10T14:17:32;23.30;;;8.50;;
32826;SDS011;51059;42.058;27.986;2022-12-10T14:20:00;23.60;;;9.27;;
32826;SDS011;51059;42.058;27.986;2022-12-10T14:22:35;26.63;;;9.47;;
32826;SDS011;51059;42.058;27.986;2022-12-10T14:25:06;26.23;;;8.90;;
32826;SDS011;51059;42.058;27.986;2022-12-10T14:27:37;28.47;;;9.03;;
32826;SDS011;51059;42.058;27.986;2022-12-10T14:30:04;26.90;;;9.40;;
32826;SDS011;51059;42.058;27.986;2022-12-10T14:32:44;28.27;;;9.17;;
32826;SDS011;51059;42.058;27.986;2022-12-10T14:35:13;28.43;;;10.93;;
32826;SDS011;51059;42.058;27.986;2022-12-10T14:37:40;23.77;;;10.67;;
32826;SDS011;51059;42.058;27.986;2022-12-10T14:40:07;26.40;;;10.23;;
32826;SDS011;51059;42.058;27.986;2022-12-10T14:42:33;25.00;;;10.80;;
32826;SDS011;51059;42.058;27.986;2022-12-10T14:45:00;26.53;;;9.97;;
32826;SDS011;51059;42.058;27.986;2022-12-10T14:47:32;25.60;;;10.07;;
32826;SDS011;51059;42.058;27.986;2022-12-10T14:50:02;27.43;;;10.10;;
32826;SDS011;51059;42.058;27.986;2022-12-10T14:52:32;26.37;;;9.93;;
32826;SDS011;51059;42.058;27.986;2022-12-10T14:55:00;30.20;;;9.97;;
32826;SDS011;51059;42.058;27.986;2022-12-10T14:57:38;27.53;;;10.03;;
32826;SDS011;51059;42.058;27.986;2022-12-10T15:02:38;23.30;;;10.00;;
32826;SDS011;51059;42.058;27.986;2022-12-10T15:05:13;24.97;;;10.07;;
32826;SDS011;51059;42.058;27.986;2022-12-10T15:07:42;22.50;;;9.47;;
32826;SDS011;51059;42.058;27.986;2022-12-10T15:10:25;32.27;;;10.17;;
32826;SDS011;51059;42.058;27.986;2022-12-10T15:13:04;25.70;;;9.50;;
32826;SDS011;51059;42.058;27.986;2022-12-10T15:15:35;31.60;;;9.67;;
32826;SDS011;51059;42.058;27.986;2022-12-10T15:20:37;24.93;;;10.70;;
32826;SDS011;51059;42.058;27.986;2022-12-10T15:25:52;26.03;;;10.87;;
32826;SDS011;51059;42.058;27.986;2022-12-10T15:28:29;27.43;;;10.40;;
32826;SDS011;51059;42.058;27.986;2022-12-10T15:30:56;28.57;;;10.90;;
32826;SDS011;51059;42.058;27.986;2022-12-10T15:33:27;23.97;;;10.60;;
32826;SDS011;51059;42.058;27.986;2022-12-10T15:35:56;32.47;;;10.73;;
32826;SDS011;51059;42.058;27.986;2022-12-10T15:38:23;27.97;;;10.03;;
32826;SDS011;51059;42.058;27.986;2022-12-10T15:40:49;33.03;;;10.70;;
32826;SDS011;51059;42.058;27.986;2022-12-10T15:45:48;26.77;;;9.50;;
32826;SDS011;51059;42.058;27.986;2022-12-10T15:48:14;26.03;;;9.20;;
32826;SDS011;51059;42.058;27.986;2022-12-10T15:50:40;31.17;;;10.13;;
32826;SDS011;51059;42.058;27.986;2022-12-10T15:53:11;32.13;;;10.23;;
32826;SDS011;51059;42.058;27.986;2022-12-10T15:55:38;34.73;;;10.67;;
32826;SDS011;51059;42.058;27.986;2022-12-10T15:58:13;28.60;;;9.73;;
32826;SDS011;51059;42.058;27.986;2022-12-10T16:00:39;23.70;;;9.50;;
32826;SDS011;51059;42.058;27.986;2022-12-10T16:03:09;27.93;;;10.20;;
32826;SDS011;51059;42.058;27.986;2022-12-10T16:05:37;32.00;;;9.90;;
32826;SDS011;51059;42.058;27.986;2022-12-10T16:10:41;24.77;;;9.73;;
32826;SDS011;51059;42.058;27.986;2022-12-10T16:13:09;28.80;;;10.57;;